createdAt,value
2022-11-12T00:04:35.576Z,7.80
2022-11-12T00:09:37.311Z,7.80
2022-11-12T00:14:38.951Z,7.80
2022-11-12T00:19:40.620Z,7.80
2022-11-12T00:24:42.280Z,7.70
2022-11-12T00:29:44.039Z,7.80
2022-11-12T00:34:46.006Z,7.70
2022-11-12T00:39:47.653Z,7.70
2022-11-12T00:44:50.001Z,7.70
2022-11-12T00:49:51.685Z,7.70
2022-11-12T00:54:53.341Z,7.70
2022-11-12T00:59:54.998Z,7.60
2022-11-12T01:04:56.693Z,7.50
2022-11-12T01:09:58.340Z,7.50
2022-11-12T01:15:00.099Z,7.50
2022-11-12T01:20:01.813Z,7.50
2022-11-12T01:25:03.721Z,7.50
2022-11-12T01:30:06.227Z,7.40
2022-11-12T01:35:08.136Z,7.30
2022-11-12T01:40:10.421Z,7.30
2022-11-12T01:45:15.930Z,7.20
2022-11-12T01:50:24.984Z,7.20
2022-11-12T01:55:32.269Z,7.20
2022-11-12T02:00:33.968Z,7.10
2022-11-12T02:05:38.120Z,7.10
2022-11-12T02:10:40.897Z,7.10
2022-11-12T02:15:43.069Z,7.10
2022-11-12T02:20:44.877Z,7.10
2022-11-12T02:25:46.544Z,7.10
2022-11-12T02:30:49.450Z,7.10
2022-11-12T02:35:51.099Z,7.10
2022-11-12T02:40:53.029Z,7.00
2022-11-12T02:45:54.913Z,7.00
2022-11-12T02:50:56.633Z,7.00
2022-11-12T02:55:59.249Z,7.00
2022-11-12T03:01:01.127Z,7.00
2022-11-12T03:06:02.943Z,6.90
2022-11-12T03:11:10.079Z,6.90
2022-11-12T03:16:11.842Z,6.90
2022-11-12T03:21:13.541Z,6.90
2022-11-12T03:26:15.244Z,6.90
2022-11-12T03:31:17.267Z,6.90
2022-11-12T03:36:19.017Z,6.80
2022-11-12T03:41:20.696Z,6.80
2022-11-12T03:46:22.436Z,6.80
2022-11-12T03:51:24.109Z,6.60
2022-11-12T03:56:25.758Z,6.60
2022-11-12T04:01:27.562Z,6.60
2022-11-12T04:06:47.929Z,6.60
2022-11-12T04:11:49.578Z,6.60
2022-11-12T04:17:23.438Z,6.50
2022-11-12T04:22:25.097Z,6.50
2022-11-12T04:27:34.240Z,6.50
2022-11-12T04:32:39.084Z,6.50
2022-11-12T04:37:47.514Z,6.50
2022-11-12T04:43:07.970Z,6.40
2022-11-12T04:48:09.645Z,6.40
2022-11-12T04:53:11.650Z,6.50
2022-11-12T04:58:13.369Z,6.40
2022-11-12T05:03:15.340Z,6.30
2022-11-12T05:08:16.998Z,6.30
2022-11-12T05:13:18.668Z,6.30
2022-11-12T05:18:20.380Z,6.20
2022-11-12T05:23:22.053Z,6.20
2022-11-12T05:28:23.971Z,6.20
2022-11-12T05:33:25.924Z,6.10
2022-11-12T05:38:27.867Z,6.10
2022-11-12T05:43:29.677Z,6.10
2022-11-12T05:48:32.078Z,6.00
2022-11-12T05:53:34.067Z,6.00
2022-11-12T05:58:36.709Z,6.00
2022-11-12T06:03:38.408Z,6.00
2022-11-12T06:08:40.213Z,5.90
2022-11-12T06:13:42.239Z,5.90
2022-11-12T06:18:43.924Z,5.90
2022-11-12T06:23:50.676Z,5.80
2022-11-12T06:28:52.905Z,5.80
2022-11-12T06:33:54.680Z,5.80
2022-11-12T06:38:56.433Z,5.80
2022-11-12T06:43:58.172Z,5.90
2022-11-12T06:48:59.815Z,5.80
2022-11-12T06:54:01.490Z,5.80
2022-11-12T06:59:03.300Z,5.80
2022-11-12T07:04:05.279Z,5.90
2022-11-12T07:09:07.144Z,6.00
2022-11-12T07:14:09.103Z,6.10
2022-11-12T07:19:10.802Z,6.10
2022-11-12T07:24:12.557Z,6.20
2022-11-12T07:29:24.952Z,6.40
2022-11-12T07:34:35.994Z,6.30
2022-11-12T07:39:37.807Z,6.40
2022-11-12T07:44:39.487Z,6.50
2022-11-12T07:49:41.239Z,6.50
2022-11-12T07:54:42.893Z,6.60
2022-11-12T07:59:46.332Z,6.70
2022-11-12T08:04:48.306Z,6.80
2022-11-12T08:09:49.966Z,6.90
2022-11-12T08:14:52.879Z,7.00
2022-11-12T08:19:55.271Z,7.30
2022-11-12T08:24:57.032Z,7.30
2022-11-12T08:29:58.683Z,7.50
2022-11-12T08:35:00.452Z,7.50
2022-11-12T08:40:02.210Z,7.70
2022-11-12T08:45:04.216Z,7.90
2022-11-12T08:50:06.386Z,8.10
2022-11-12T08:55:08.606Z,8.20
2022-11-12T09:00:12.357Z,8.40
2022-11-12T09:05:14.084Z,8.60
2022-11-12T09:10:15.854Z,8.70
2022-11-12T09:20:39.584Z,9.10
2022-11-12T09:25:42.209Z,9.20
2022-11-12T09:30:49.189Z,9.30
2022-11-12T09:35:51.325Z,9.40
2022-11-12T09:40:52.943Z,9.70
2022-11-12T09:46:13.981Z,9.90
2022-11-12T09:51:24.784Z,10.20
2022-11-12T09:56:28.340Z,10.50
2022-11-12T10:02:00.478Z,10.80
2022-11-12T10:07:13.617Z,11.00
2022-11-12T10:12:33.846Z,11.30
2022-11-12T10:17:44.127Z,11.50
2022-11-12T10:22:58.416Z,11.60
2022-11-12T10:28:06.236Z,11.90
2022-11-12T10:33:15.026Z,12.10
2022-11-12T10:38:25.752Z,12.20
2022-11-12T10:43:27.670Z,12.30
2022-11-12T10:48:35.641Z,12.30
2022-11-12T10:53:39.826Z,12.40
2022-11-12T10:58:41.494Z,12.40
2022-11-12T11:03:55.985Z,12.50
2022-11-12T11:09:12.891Z,12.60
2022-11-12T11:14:35.689Z,12.60
2022-11-12T11:19:42.582Z,12.70
2022-11-12T11:25:12.097Z,12.70
2022-11-12T11:30:17.996Z,12.70
2022-11-12T11:35:37.936Z,12.70
2022-11-12T11:40:50.608Z,12.60
2022-11-12T11:46:16.399Z,12.60
2022-11-12T11:51:55.744Z,12.50
2022-11-12T11:57:00.227Z,12.40
2022-11-12T12:02:21.625Z,12.30
2022-11-12T12:07:47.141Z,12.20
2022-11-12T12:13:06.358Z,12.10
2022-11-12T12:18:32.259Z,12.10
2022-11-12T12:23:45.861Z,12.00
2022-11-12T12:29:10.488Z,12.00
2022-11-12T12:34:38.839Z,12.10
2022-11-12T12:40:05.098Z,12.20
2022-11-12T12:45:29.610Z,12.20
2022-11-12T12:50:39.612Z,12.30
2022-11-12T12:55:44.679Z,12.20
2022-11-12T13:00:59.058Z,12.30
2022-11-12T13:06:22.806Z,12.40
2022-11-12T13:12:01.486Z,12.30
2022-11-12T13:17:04.427Z,12.30
2022-11-12T13:22:18.272Z,12.40
2022-11-12T13:27:42.553Z,12.50
2022-11-12T13:32:54.782Z,12.90
2022-11-12T13:37:58.552Z,12.80
2022-11-12T13:43:06.217Z,12.90
2022-11-12T13:48:12.773Z,12.80
2022-11-12T13:53:22.378Z,12.80
2022-11-12T13:58:29.904Z,12.80
2022-11-12T14:03:45.643Z,12.80
2022-11-12T14:09:05.881Z,12.80
2022-11-12T14:14:26.227Z,12.80
2022-11-12T14:19:49.900Z,12.60
2022-11-12T14:24:59.900Z,12.40
2022-11-12T14:30:08.440Z,12.20
2022-11-12T14:35:28.362Z,12.00
2022-11-12T14:40:52.011Z,11.90
2022-11-12T14:45:55.679Z,11.80
2022-11-12T14:51:05.925Z,11.60
2022-11-12T14:56:11.026Z,11.50
2022-11-12T15:06:57.769Z,11.10
2022-11-12T15:11:59.683Z,10.90
2022-11-12T15:17:01.867Z,10.60
2022-11-12T15:22:04.345Z,10.50
2022-11-12T15:27:35.036Z,10.40
2022-11-12T15:32:36.708Z,10.30
2022-11-12T15:37:42.717Z,10.10
2022-11-12T15:42:44.910Z,10.10
2022-11-12T15:47:47.259Z,9.80
2022-11-12T15:52:49.790Z,9.70
2022-11-12T15:57:53.024Z,9.70
2022-11-12T16:03:18.735Z,9.60
2022-11-12T16:08:20.438Z,9.40
2022-11-12T16:13:25.526Z,9.40
2022-11-12T16:18:27.377Z,9.30
2022-11-12T16:23:29.423Z,9.20
2022-11-12T16:28:31.368Z,9.10
2022-11-12T16:33:33.070Z,9.10
2022-11-12T16:38:34.783Z,8.90
2022-11-12T16:43:36.455Z,8.80
2022-11-12T16:48:38.929Z,8.80
2022-11-12T16:53:40.742Z,8.70
2022-11-12T16:58:42.467Z,8.60
2022-11-12T17:03:44.219Z,8.60
2022-11-12T17:08:48.156Z,8.60
2022-11-12T17:13:50.093Z,8.50
2022-11-12T17:18:55.804Z,8.40
2022-11-12T17:23:58.607Z,8.30
2022-11-12T17:29:06.574Z,8.30
2022-11-12T17:34:10.509Z,8.30
2022-11-12T17:39:13.259Z,8.20
2022-11-12T17:44:17.215Z,8.10
2022-11-12T17:49:19.121Z,8.00
2022-11-12T17:54:21.365Z,7.90
2022-11-12T17:59:23.212Z,7.90
2022-11-12T18:04:26.579Z,7.80
2022-11-12T18:09:31.594Z,7.80
2022-11-12T18:14:33.326Z,7.80
2022-11-12T18:19:35.026Z,7.70
2022-11-12T18:24:36.890Z,7.60
2022-11-12T18:29:40.251Z,7.60
2022-11-12T18:34:45.007Z,7.50
2022-11-12T18:39:46.744Z,7.50
2022-11-12T18:44:48.434Z,7.40
2022-11-12T18:49:50.177Z,7.40
2022-11-12T18:54:51.866Z,7.50
2022-11-12T18:59:55.021Z,7.60
2022-11-12T19:04:56.694Z,7.60
2022-11-12T19:09:58.379Z,7.40
2022-11-12T19:15:00.103Z,7.30
2022-11-12T19:20:01.792Z,7.20
2022-11-12T19:25:03.949Z,7.10
2022-11-12T19:30:06.869Z,7.10
2022-11-12T19:35:08.924Z,7.10
2022-11-12T19:40:11.592Z,7.10
2022-11-12T19:45:13.308Z,7.10
2022-11-12T19:50:14.982Z,7.00
2022-11-12T19:55:16.770Z,7.10
2022-11-12T20:00:18.659Z,7.10
2022-11-12T20:05:20.424Z,7.10
2022-11-12T20:10:22.156Z,7.10
2022-11-12T20:15:23.822Z,7.10
2022-11-12T20:20:25.538Z,7.10
2022-11-12T20:25:27.227Z,7.10
2022-11-12T20:30:28.870Z,7.00
2022-11-12T20:35:30.603Z,7.00
2022-11-12T20:40:32.780Z,6.90
2022-11-12T20:45:35.150Z,6.80
2022-11-12T20:50:36.985Z,6.70
2022-11-12T20:55:39.374Z,6.60
2022-11-12T21:00:41.129Z,6.50
2022-11-12T21:05:42.790Z,6.50
2022-11-12T21:10:49.151Z,6.40
2022-11-12T21:15:52.037Z,6.40
2022-11-12T21:21:00.365Z,6.30
2022-11-12T21:26:04.277Z,6.20
2022-11-12T21:31:09.330Z,6.20
2022-11-12T21:36:16.182Z,6.10
2022-11-12T21:41:22.006Z,6.00
2022-11-12T21:46:29.095Z,6.00
2022-11-12T21:51:32.064Z,5.90
2022-11-12T21:56:34.496Z,5.80
2022-11-12T22:01:36.284Z,5.70
2022-11-12T22:06:38.492Z,5.70
2022-11-12T22:11:40.336Z,5.70
2022-11-12T22:16:41.994Z,5.60
2022-11-12T22:21:43.639Z,5.60
2022-11-12T22:26:45.379Z,5.60
2022-11-12T22:31:47.307Z,5.50
2022-11-12T22:36:48.976Z,5.60
2022-11-12T22:41:50.712Z,5.50
2022-11-12T22:46:52.375Z,5.50
2022-11-12T22:51:54.086Z,5.40
2022-11-12T22:56:55.729Z,5.40
2022-11-12T23:01:57.391Z,5.30
2022-11-12T23:06:59.162Z,5.30
2022-11-12T23:12:00.990Z,5.30
2022-11-12T23:17:02.746Z,5.20
2022-11-12T23:22:07.931Z,5.20
2022-11-12T23:27:09.941Z,5.10
2022-11-12T23:32:12.154Z,5.10
2022-11-12T23:37:13.865Z,5.00
2022-11-12T23:42:15.588Z,5.00
2022-11-12T23:47:17.296Z,5.00
2022-11-12T23:52:19.197Z,4.90
2022-11-12T23:57:21.191Z,4.90
